sensor_id;sensor_type;location;lat;lon;timestamp;pressure;altitude;pressure_sealevel;temperature
15333;BMP180;7766;51.534;6.722;2023-07-28T00:00:35;97753.47;;;15.39
15333;BMP180;7766;51.534;6.722;2023-07-28T00:01:36;97755.03;;;15.40
15333;BMP180;7766;51.534;6.722;2023-07-28T00:02:37;97755.09;;;15.35
15333;BMP180;7766;51.534;6.722;2023-07-28T00:03:38;97759.09;;;15.32
15333;BMP180;7766;51.534;6.722;2023-07-28T00:04:39;97756.44;;;15.32
15333;BMP180;7766;51.534;6.722;2023-07-28T00:05:40;97767.59;;;15.29
15333;BMP180;7766;51.534;6.722;2023-07-28T00:06:41;97762.25;;;15.34
15333;BMP180;7766;51.534;6.722;2023-07-28T00:07:42;97761.69;;;15.37
15333;BMP180;7766;51.534;6.722;2023-07-28T00:08:43;97762.22;;;15.39
15333;BMP180;7766;51.534;6.722;2023-07-28T00:09:44;97755.91;;;15.35
15333;BMP180;7766;51.534;6.722;2023-07-28T00:10:45;97765.69;;;15.35
15333;BMP180;7766;51.534;6.722;2023-07-28T00:11:46;97767.53;;;15.34
15333;BMP180;7766;51.534;6.722;2023-07-28T00:12:47;97766.78;;;15.29
15333;BMP180;7766;51.534;6.722;2023-07-28T00:13:48;97752.75;;;15.33
15333;BMP180;7766;51.534;6.722;2023-07-28T00:14:49;97766.47;;;15.35
15333;BMP180;7766;51.534;6.722;2023-07-28T00:15:50;97763.78;;;15.40
15333;BMP180;7766;51.534;6.722;2023-07-28T00:16:52;97758.53;;;15.35
15333;BMP180;7766;51.534;6.722;2023-07-28T00:17:53;97764.63;;;15.36
15333;BMP180;7766;51.534;6.722;2023-07-28T00:18:54;97761.47;;;15.34
15333;BMP180;7766;51.534;6.722;2023-07-28T00:19:55;97765.13;;;15.38
15333;BMP180;7766;51.534;6.722;2023-07-28T00:20:57;97765.69;;;15.35
15333;BMP180;7766;51.534;6.722;2023-07-28T00:21:58;97768.28;;;15.40
15333;BMP180;7766;51.534;6.722;2023-07-28T00:22:59;97762.78;;;15.36
15333;BMP180;7766;51.534;6.722;2023-07-28T00:23:59;97766.16;;;15.41
15333;BMP180;7766;51.534;6.722;2023-07-28T00:25:00;97765.91;;;15.38
15333;BMP180;7766;51.534;6.722;2023-07-28T00:26:01;97757.47;;;15.36
15333;BMP180;7766;51.534;6.722;2023-07-28T00:27:03;97767.50;;;15.39
15333;BMP180;7766;51.534;6.722;2023-07-28T00:28:04;97774.53;;;15.25
15333;BMP180;7766;51.534;6.722;2023-07-28T00:29:05;97768.69;;;15.24
15333;BMP180;7766;51.534;6.722;2023-07-28T00:30:07;97763.66;;;15.27
15333;BMP180;7766;51.534;6.722;2023-07-28T00:31:08;97768.38;;;15.30
15333;BMP180;7766;51.534;6.722;2023-07-28T00:32:09;97763.09;;;15.30
15333;BMP180;7766;51.534;6.722;2023-07-28T00:33:10;97767.03;;;15.32
15333;BMP180;7766;51.534;6.722;2023-07-28T00:34:11;97766.97;;;15.37
15333;BMP180;7766;51.534;6.722;2023-07-28T00:35:12;97763.56;;;15.37
15333;BMP180;7766;51.534;6.722;2023-07-28T00:36:13;97757.47;;;15.36
15333;BMP180;7766;51.534;6.722;2023-07-28T00:37:14;97761.19;;;15.35
15333;BMP180;7766;51.534;6.722;2023-07-28T00:38:14;97770.19;;;15.34
15333;BMP180;7766;51.534;6.722;2023-07-28T00:39:16;97761.19;;;15.35
15333;BMP180;7766;51.534;6.722;2023-07-28T00:40:17;97761.25;;;15.30
15333;BMP180;7766;51.534;6.722;2023-07-28T00:41:18;97763.41;;;15.24
15333;BMP180;7766;51.534;6.722;2023-07-28T00:42:19;97767.38;;;15.26
15333;BMP180;7766;51.534;6.722;2023-07-28T00:43:20;97758.13;;;15.24
15333;BMP180;7766;51.534;6.722;2023-07-28T00:44:21;97762.59;;;15.28
15333;BMP180;7766;51.534;6.722;2023-07-28T00:45:22;97764.88;;;15.34
15333;BMP180;7766;51.534;6.722;2023-07-28T00:46:23;97756.94;;;15.34
15333;BMP180;7766;51.534;6.722;2023-07-28T00:47:25;97768.38;;;15.30
15333;BMP180;7766;51.534;6.722;2023-07-28T00:48:26;97768.84;;;15.37
15333;BMP180;7766;51.534;6.722;2023-07-28T00:49:27;97765.41;;;15.36
15333;BMP180;7766;51.534;6.722;2023-07-28T00:50:28;97763.50;;;15.41
15333;BMP180;7766;51.534;6.722;2023-07-28T00:51:30;97764.28;;;15.42
15333;BMP180;7766;51.534;6.722;2023-07-28T00:52:32;97765.00;;;15.47
15333;BMP180;7766;51.534;6.722;2023-07-28T00:53:33;97765.25;;;15.51
15333;BMP180;7766;51.534;6.722;2023-07-28T00:54:34;97760.19;;;15.54
15333;BMP180;7766;51.534;6.722;2023-07-28T00:55:36;97763.09;;;15.53
15333;BMP180;7766;51.534;6.722;2023-07-28T00:56:37;97764.13;;;15.56
15333;BMP180;7766;51.534;6.722;2023-07-28T00:57:38;97762.09;;;15.49
15333;BMP180;7766;51.534;6.722;2023-07-28T00:58:40;97755.94;;;15.53
15333;BMP180;7766;51.534;6.722;2023-07-28T00:59:41;97757.78;;;15.57
15333;BMP180;7766;51.534;6.722;2023-07-28T01:00:42;97764.06;;;15.61
15333;BMP180;7766;51.534;6.722;2023-07-28T01:01:43;97762.44;;;15.65
15333;BMP180;7766;51.534;6.722;2023-07-28T01:02:45;97758.75;;;15.61
15333;BMP180;7766;51.534;6.722;2023-07-28T01:03:46;97763.56;;;15.59
15333;BMP180;7766;51.534;6.722;2023-07-28T01:04:48;97764.56;;;15.63
15333;BMP180;7766;51.534;6.722;2023-07-28T01:07:51;97752.31;;;15.49
15333;BMP180;7766;51.534;6.722;2023-07-28T01:08:56;97747.75;;;15.55
15333;BMP180;7766;51.534;6.722;2023-07-28T01:10:06;97761.25;;;15.53
15333;BMP180;7766;51.534;6.722;2023-07-28T01:11:08;97762.78;;;15.36
15333;BMP180;7766;51.534;6.722;2023-07-28T01:12:09;97767.78;;;15.38
15333;BMP180;7766;51.534;6.722;2023-07-28T01:13:10;97770.72;;;15.36
15333;BMP180;7766;51.534;6.722;2023-07-28T01:14:11;97773.34;;;15.36
15333;BMP180;7766;51.534;6.722;2023-07-28T01:15:12;97767.50;;;15.39
15333;BMP180;7766;51.534;6.722;2023-07-28T01:16:16;97769.56;;;15.42
15333;BMP180;7766;51.534;6.722;2023-07-28T01:17:16;97773.06;;;15.38
15333;BMP180;7766;51.534;6.722;2023-07-28T01:18:18;97772.50;;;15.40
15333;BMP180;7766;51.534;6.722;2023-07-28T01:19:21;97774.81;;;15.47
15333;BMP180;7766;51.534;6.722;2023-07-28T01:20:25;97779.25;;;15.51
15333;BMP180;7766;51.534;6.722;2023-07-28T01:21:30;97773.69;;;15.53
15333;BMP180;7766;51.534;6.722;2023-07-28T01:24:21;97770.53;;;15.51
15333;BMP180;7766;51.534;6.722;2023-07-28T01:25:48;97763.31;;;15.56
15333;BMP180;7766;51.534;6.722;2023-07-28T01:26:50;97767.56;;;15.57
15333;BMP180;7766;51.534;6.722;2023-07-28T01:27:52;97768.84;;;15.59
15333;BMP180;7766;51.534;6.722;2023-07-28T01:28:54;97772.84;;;15.57
15333;BMP180;7766;51.534;6.722;2023-07-28T01:29:56;97775.72;;;15.60
15333;BMP180;7766;51.534;6.722;2023-07-28T01:30:57;97770.69;;;15.59
15333;BMP180;7766;51.534;6.722;2023-07-28T01:31:59;97769.41;;;15.56
15333;BMP180;7766;51.534;6.722;2023-07-28T01:33:00;97773.41;;;15.54
15333;BMP180;7766;51.534;6.722;2023-07-28T01:34:02;97762.88;;;15.49
15333;BMP180;7766;51.534;6.722;2023-07-28T01:35:03;97768.38;;;15.53
15333;BMP180;7766;51.534;6.722;2023-07-28T01:36:04;97768.97;;;15.50
15333;BMP180;7766;51.534;6.722;2023-07-28T01:37:05;97765.31;;;15.46
15333;BMP180;7766;51.534;6.722;2023-07-28T01:38:06;97769.47;;;15.52
15333;BMP180;7766;51.534;6.722;2023-07-28T01:39:08;97767.16;;;15.45
15333;BMP180;7766;51.534;6.722;2023-07-28T01:40:09;97771.31;;;15.51
15333;BMP180;7766;51.534;6.722;2023-07-28T01:41:10;97761.53;;;15.52
15333;BMP180;7766;51.534;6.722;2023-07-28T01:42:11;97770.03;;;15.49
15333;BMP180;7766;51.534;6.722;2023-07-28T01:43:12;97770.28;;;15.52
15333;BMP180;7766;51.534;6.722;2023-07-28T01:44:13;97763.06;;;15.57
15333;BMP180;7766;51.534;6.722;2023-07-28T01:45:14;97765.91;;;15.61
15333;BMP180;7766;51.534;6.722;2023-07-28T01:46:15;97766.16;;;15.64
15333;BMP180;7766;51.534;6.722;2023-07-28T01:47:16;97772.00;;;15.61
15333;BMP180;7766;51.534;6.722;2023-07-28T01:48:17;97775.72;;;15.60
15333;BMP180;7766;51.534;6.722;2023-07-28T01:49:18;97765.34;;;15.64
15333;BMP180;7766;51.534;6.722;2023-07-28T01:50:19;97770.38;;;15.65
15333;BMP180;7766;51.534;6.722;2023-07-28T01:51:20;97772.13;;;15.52
15333;BMP180;7766;51.534;6.722;2023-07-28T01:52:21;97772.69;;;15.49
15333;BMP180;7766;51.534;6.722;2023-07-28T01:53:23;97765.25;;;15.51
15333;BMP180;7766;51.534;6.722;2023-07-28T01:54:24;97766.75;;;15.56
15333;BMP180;7766;51.534;6.722;2023-07-28T01:55:26;97772.00;;;15.61
15333;BMP180;7766;51.534;6.722;2023-07-28T01:56:27;97767.72;;;15.65
15333;BMP180;7766;51.534;6.722;2023-07-28T01:57:30;97766.31;;;15.50
15333;BMP180;7766;51.534;6.722;2023-07-28T01:58:31;97761.47;;;15.56
15333;BMP180;7766;51.534;6.722;2023-07-28T01:59:32;97761.97;;;15.58
15333;BMP180;7766;51.534;6.722;2023-07-28T02:00:33;97767.00;;;15.60
15333;BMP180;7766;51.534;6.722;2023-07-28T02:01:35;97768.06;;;15.59
15333;BMP180;7766;51.534;6.722;2023-07-28T02:02:36;97763.78;;;15.63
15333;BMP180;7766;51.534;6.722;2023-07-28T02:03:37;97769.72;;;15.55
15333;BMP180;7766;51.534;6.722;2023-07-28T02:04:38;97762.75;;;15.59
15333;BMP180;7766;51.534;6.722;2023-07-28T02:05:39;97758.25;;;15.59
15333;BMP180;7766;51.534;6.722;2023-07-28T02:06:40;97768.38;;;15.53
15333;BMP180;7766;51.534;6.722;2023-07-28T02:07:42;97759.63;;;15.57
15333;BMP180;7766;51.534;6.722;2023-07-28T02:08:43;97765.66;;;15.62
15333;BMP180;7766;51.534;6.722;2023-07-28T02:09:44;97765.19;;;15.56
15333;BMP180;7766;51.534;6.722;2023-07-28T02:10:45;97760.41;;;15.57
15333;BMP180;7766;51.534;6.722;2023-07-28T02:11:46;97765.91;;;15.61
15333;BMP180;7766;51.534;6.722;2023-07-28T02:12:47;97761.47;;;15.56
15333;BMP180;7766;51.534;6.722;2023-07-28T02:13:48;97765.16;;;15.60
15333;BMP180;7766;51.534;6.722;2023-07-28T02:14:49;97759.84;;;15.60
15333;BMP180;7766;51.534;6.722;2023-07-28T02:15:50;97764.81;;;15.44
15333;BMP180;7766;51.534;6.722;2023-07-28T02:16:51;97764.75;;;15.49
15333;BMP180;7766;51.534;6.722;2023-07-28T02:17:52;97765.25;;;15.51
15333;BMP180;7766;51.534;6.722;2023-07-28T02:18:56;97766.91;;;15.42
15333;BMP180;7766;51.534;6.722;2023-07-28T02:19:57;97761.63;;;15.42
15333;BMP180;7766;51.534;6.722;2023-07-28T02:20:58;97771.09;;;15.48
15333;BMP180;7766;51.534;6.722;2023-07-28T02:21:59;97772.69;;;15.49
15333;BMP180;7766;51.534;6.722;2023-07-28T02:23:00;97772.19;;;15.47
15333;BMP180;7766;51.534;6.722;2023-07-28T02:24:01;97769.53;;;15.47
15333;BMP180;7766;51.534;6.722;2023-07-28T02:25:02;97766.31;;;15.50
15333;BMP180;7766;51.534;6.722;2023-07-28T02:26:03;97772.13;;;15.52
15333;BMP180;7766;51.534;6.722;2023-07-28T02:27:04;97771.03;;;15.53
15333;BMP180;7766;51.534;6.722;2023-07-28T02:28:06;97774.81;;;15.47
15333;BMP180;7766;51.534;6.722;2023-07-28T02:29:07;97775.25;;;15.54
15333;BMP180;7766;51.534;6.722;2023-07-28T02:30:08;97776.63;;;15.51
15333;BMP180;7766;51.534;6.722;2023-07-28T02:31:09;97778.97;;;15.53
15333;BMP180;7766;51.534;6.722;2023-07-28T02:32:10;97777.34;;;15.56
15333;BMP180;7766;51.534;6.722;2023-07-28T02:33:11;97776.28;;;15.57
15333;BMP180;7766;51.534;6.722;2023-07-28T02:34:11;97776.00;;;15.59
15333;BMP180;7766;51.534;6.722;2023-07-28T02:35:12;97781.22;;;15.64
15333;BMP180;7766;51.534;6.722;2023-07-28T02:36:13;97777.28;;;15.61
15333;BMP180;7766;51.534;6.722;2023-07-28T02:37:15;97777.84;;;15.58
15333;BMP180;7766;51.534;6.722;2023-07-28T02:38:16;97776.72;;;15.64
15333;BMP180;7766;51.534;6.722;2023-07-28T02:39:18;97773.22;;;15.69
15333;BMP180;7766;51.534;6.722;2023-07-28T02:40:19;97778.94;;;15.57
15333;BMP180;7766;51.534;6.722;2023-07-28T02:41:20;97785.59;;;15.55
15333;BMP180;7766;51.534;6.722;2023-07-28T02:42:21;97779.19;;;15.56
15333;BMP180;7766;51.534;6.722;2023-07-28T02:43:22;97780.78;;;15.57
15333;BMP180;7766;51.534;6.722;2023-07-28T02:44:23;97783.66;;;15.60
15333;BMP180;7766;51.534;6.722;2023-07-28T02:45:24;97784.38;;;15.66
15333;BMP180;7766;51.534;6.722;2023-07-28T02:46:25;97786.16;;;15.47
15333;BMP180;7766;51.534;6.722;2023-07-28T02:47:26;97784.78;;;15.55
15333;BMP180;7766;51.534;6.722;2023-07-28T02:48:27;97785.09;;;15.48
15333;BMP180;7766;51.534;6.722;2023-07-28T02:49:28;97791.69;;;15.51
15333;BMP180;7766;51.534;6.722;2023-07-28T02:50:29;97793.28;;;15.52
15333;BMP180;7766;51.534;6.722;2023-07-28T02:51:31;97791.69;;;15.51
15333;BMP180;7766;51.534;6.722;2023-07-28T02:52:32;97793.34;;;15.47
15333;BMP180;7766;51.534;6.722;2023-07-28T02:53:33;97798.00;;;15.55
15333;BMP180;7766;51.534;6.722;2023-07-28T02:54:34;97800.03;;;15.62
15333;BMP180;7766;51.534;6.722;2023-07-28T02:55:44;97792.91;;;15.63
15333;BMP180;7766;51.534;6.722;2023-07-28T02:56:45;97783.06;;;15.63
15333;BMP180;7766;51.534;6.722;2023-07-28T02:57:46;97795.00;;;15.61
15333;BMP180;7766;51.534;6.722;2023-07-28T02:58:48;97804.03;;;15.60
15333;BMP180;7766;51.534;6.722;2023-07-28T02:59:48;97797.09;;;15.64
15333;BMP180;7766;51.534;6.722;2023-07-28T03:00:52;97794.53;;;15.59
15333;BMP180;7766;51.534;6.722;2023-07-28T03:01:53;97796.91;;;15.60
15333;BMP180;7766;51.534;6.722;2023-07-28T03:02:54;97799.31;;;15.57
15333;BMP180;7766;51.534;6.722;2023-07-28T03:03:55;97797.47;;;15.57
15333;BMP180;7766;51.534;6.722;2023-07-28T03:04:56;97798.47;;;15.61
15333;BMP180;7766;51.534;6.722;2023-07-28T03:05:57;97794.41;;;15.69
15333;BMP180;7766;51.534;6.722;2023-07-28T03:06:58;97799.19;;;15.67
15333;BMP180;7766;51.534;6.722;2023-07-28T03:07:59;97794.94;;;15.66
15333;BMP180;7766;51.534;6.722;2023-07-28T03:09:00;97797.09;;;15.64
15333;BMP180;7766;51.534;6.722;2023-07-28T03:10:01;97795.97;;;15.70
15333;BMP180;7766;51.534;6.722;2023-07-28T03:11:02;97799.47;;;15.65
15333;BMP180;7766;51.534;6.722;2023-07-28T03:12:03;97807.84;;;15.72
15333;BMP180;7766;51.534;6.722;2023-07-28T03:13:06;97794.84;;;15.75
15333;BMP180;7766;51.534;6.722;2023-07-28T03:14:07;97797.75;;;15.79
15333;BMP180;7766;51.534;6.722;2023-07-28T03:15:08;97798.25;;;15.81
15333;BMP180;7766;51.534;6.722;2023-07-28T03:16:09;97800.81;;;15.86
15333;BMP180;7766;51.534;6.722;2023-07-28T03:17:10;97799.78;;;15.82
15333;BMP180;7766;51.534;6.722;2023-07-28T03:18:11;97800.81;;;15.86
15333;BMP180;7766;51.534;6.722;2023-07-28T03:19:12;97803.53;;;15.81
15333;BMP180;7766;51.534;6.722;2023-07-28T03:20:13;97809.31;;;15.83
15333;BMP180;7766;51.534;6.722;2023-07-28T03:21:14;97808.59;;;15.77
15333;BMP180;7766;51.534;6.722;2023-07-28T03:22:15;97801.94;;;15.80
15333;BMP180;7766;51.534;6.722;2023-07-28T03:23:16;97799.59;;;15.78
15333;BMP180;7766;51.534;6.722;2023-07-28T03:24:17;97800.22;;;15.71
15333;BMP180;7766;51.534;6.722;2023-07-28T03:25:18;97797.91;;;15.64
15333;BMP180;7766;51.534;6.722;2023-07-28T03:26:19;97798.13;;;15.68
15333;BMP180;7766;51.534;6.722;2023-07-28T03:27:20;97799.13;;;15.72
15333;BMP180;7766;51.534;6.722;2023-07-28T03:28:21;97801.72;;;15.76
15333;BMP180;7766;51.534;6.722;2023-07-28T03:29:22;97811.53;;;15.76
15333;BMP180;7766;51.534;6.722;2023-07-28T03:30:23;97800.38;;;15.79
15333;BMP180;7766;51.534;6.722;2023-07-28T03:31:24;97796.38;;;15.81
15333;BMP180;7766;51.534;6.722;2023-07-28T03:32:25;97802.16;;;15.83
15333;BMP180;7766;51.534;6.722;2023-07-28T03:33:26;97799.03;;;15.81
15333;BMP180;7766;51.534;6.722;2023-07-28T03:34:27;97802.66;;;15.85
15333;BMP180;7766;51.534;6.722;2023-07-28T03:35:28;97802.91;;;15.88
15333;BMP180;7766;51.534;6.722;2023-07-28T03:36:29;97803.44;;;15.90
15333;BMP180;7766;51.534;6.722;2023-07-28T03:37:31;97798.63;;;15.92
15333;BMP180;7766;51.534;6.722;2023-07-28T03:38:32;97808.16;;;15.93
15333;BMP180;7766;51.534;6.722;2023-07-28T03:39:33;97805.03;;;15.91
15333;BMP180;7766;51.534;6.722;2023-07-28T03:40:34;97805.06;;;15.87
15333;BMP180;7766;51.534;6.722;2023-07-28T03:41:35;97799.47;;;15.88
15333;BMP180;7766;51.534;6.722;2023-07-28T03:42:37;97800.03;;;15.85
15333;BMP180;7766;51.534;6.722;2023-07-28T03:43:38;97803.72;;;15.89
15333;BMP180;7766;51.534;6.722;2023-07-28T03:44:39;97804.25;;;15.86
15333;BMP180;7766;51.534;6.722;2023-07-28T03:45:42;97804.03;;;15.83
15333;BMP180;7766;51.534;6.722;2023-07-28T03:46:43;97808.03;;;15.80
15333;BMP180;7766;51.534;6.722;2023-07-28T03:47:44;97812.47;;;15.85
15333;BMP180;7766;51.534;6.722;2023-07-28T03:48:45;97811.91;;;15.88
15333;BMP180;7766;51.534;6.722;2023-07-28T03:49:46;97813.00;;;15.87
15333;BMP180;7766;51.534;6.722;2023-07-28T03:50:47;97805.63;;;15.84
15333;BMP180;7766;51.534;6.722;2023-07-28T03:51:48;97809.06;;;15.84
15333;BMP180;7766;51.534;6.722;2023-07-28T03:52:49;97810.84;;;15.88
15333;BMP180;7766;51.534;6.722;2023-07-28T03:53:50;97809.53;;;15.91
15333;BMP180;7766;51.534;6.722;2023-07-28T03:54:51;97806.56;;;15.92
15333;BMP180;7766;51.534;6.722;2023-07-28T03:55:52;97805.88;;;15.82
15333;BMP180;7766;51.534;6.722;2023-07-28T03:56:54;97805.31;;;15.85
15333;BMP180;7766;51.534;6.722;2023-07-28T03:57:55;97809.25;;;15.88
15333;BMP180;7766;51.534;6.722;2023-07-28T03:58:56;97815.88;;;15.90
15333;BMP180;7766;51.534;6.722;2023-07-28T03:59:57;97816.25;;;15.79
15333;BMP180;7766;51.534;6.722;2023-07-28T04:00:58;97813.56;;;15.84
15333;BMP180;7766;51.534;6.722;2023-07-28T04:01:59;97815.34;;;15.88
15333;BMP180;7766;51.534;6.722;2023-07-28T04:02:59;97816.66;;;15.90
15333;BMP180;7766;51.534;6.722;2023-07-28T04:04:00;97811.88;;;15.92
15333;BMP180;7766;51.534;6.722;2023-07-28T04:05:04;97813.97;;;15.95
15333;BMP180;7766;51.534;6.722;2023-07-28T04:06:10;97815.81;;;15.95
15333;BMP180;7766;51.534;6.722;2023-07-28T04:07:11;97810.75;;;15.98
15333;BMP180;7766;51.534;6.722;2023-07-28T04:08:13;97819.19;;;16.00
15333;BMP180;7766;51.534;6.722;2023-07-28T04:09:14;97821.34;;;15.98
15333;BMP180;7766;51.534;6.722;2023-07-28T04:10:15;97804.88;;;16.01
15333;BMP180;7766;51.534;6.722;2023-07-28T04:11:17;97806.47;;;16.02
15333;BMP180;7766;51.534;6.722;2023-07-28T04:12:18;97802.53;;;16.00
15333;BMP180;7766;51.534;6.722;2023-07-28T04:13:19;97795.59;;;16.04
15333;BMP180;7766;51.534;6.722;2023-07-28T04:14:20;97793.72;;;16.04
15333;BMP180;7766;51.534;6.722;2023-07-28T04:15:21;97799.66;;;15.96
15333;BMP180;7766;51.534;6.722;2023-07-28T04:16:22;97792.16;;;16.03
15333;BMP180;7766;51.534;6.722;2023-07-28T04:17:23;97790.03;;;16.05
15333;BMP180;7766;51.534;6.722;2023-07-28T04:18:24;97792.09;;;16.08
15333;BMP180;7766;51.534;6.722;2023-07-28T04:19:25;97792.59;;;16.10
15333;BMP180;7766;51.534;6.722;2023-07-28T04:20:25;97794.16;;;16.11
15333;BMP180;7766;51.534;6.722;2023-07-28T04:21:27;97794.16;;;16.11
15333;BMP180;7766;51.534;6.722;2023-07-28T04:22:28;97793.09;;;16.12
15333;BMP180;7766;51.534;6.722;2023-07-28T04:23:29;97796.25;;;16.14
15333;BMP180;7766;51.534;6.722;2023-07-28T04:24:30;97792.81;;;16.13
15333;BMP180;7766;51.534;6.722;2023-07-28T04:25:31;97796.25;;;16.14
15333;BMP180;7766;51.534;6.722;2023-07-28T04:26:32;97802.34;;;16.14
15333;BMP180;7766;51.534;6.722;2023-07-28T04:27:33;97803.63;;;16.17
15333;BMP180;7766;51.534;6.722;2023-07-28T04:28:34;97816.94;;;16.12
15333;BMP180;7766;51.534;6.722;2023-07-28T04:29:34;97808.09;;;15.98
15333;BMP180;7766;51.534;6.722;2023-07-28T04:30:36;97817.06;;;16.02
15333;BMP180;7766;51.534;6.722;2023-07-28T04:31:37;97805.34;;;16.08
15333;BMP180;7766;51.534;6.722;2023-07-28T04:32:38;97818.28;;;16.09
15333;BMP180;7766;51.534;6.722;2023-07-28T04:33:42;97808.50;;;16.10
15333;BMP180;7766;51.534;6.722;2023-07-28T04:34:43;97818.00;;;16.11
15333;BMP180;7766;51.534;6.722;2023-07-28T04:35:44;97808.72;;;16.13
15333;BMP180;7766;51.534;6.722;2023-07-28T04:36:45;97813.72;;;16.15
15333;BMP180;7766;51.534;6.722;2023-07-28T04:37:46;97819.50;;;16.17
15333;BMP180;7766;51.534;6.722;2023-07-28T04:38:47;97823.88;;;16.08
15333;BMP180;7766;51.534;6.722;2023-07-28T04:39:48;97834.47;;;16.08
15333;BMP180;7766;51.534;6.722;2023-07-28T04:40:49;97823.34;;;16.06
15333;BMP180;7766;51.534;6.722;2023-07-28T04:41:50;97826.94;;;15.97
15333;BMP180;7766;51.534;6.722;2023-07-28T04:42:51;97824.72;;;16.04
15333;BMP180;7766;51.534;6.722;2023-07-28T04:43:54;97826.06;;;16.01
15333;BMP180;7766;51.534;6.722;2023-07-28T04:44:55;97825.50;;;16.04
15333;BMP180;7766;51.534;6.722;2023-07-28T04:45:56;97830.25;;;16.07
15333;BMP180;7766;51.534;6.722;2023-07-28T04:46:57;97832.31;;;16.10
15333;BMP180;7766;51.534;6.722;2023-07-28T04:47:58;97827.09;;;16.05
15333;BMP180;7766;51.534;6.722;2023-07-28T04:48:59;97827.28;;;16.08
15333;BMP180;7766;51.534;6.722;2023-07-28T04:50:00;97826.47;;;16.13
15333;BMP180;7766;51.534;6.722;2023-07-28T04:51:01;97825.38;;;16.14
15333;BMP180;7766;51.534;6.722;2023-07-28T04:52:02;97836.44;;;15.98
15333;BMP180;7766;51.534;6.722;2023-07-28T04:53:03;97827.09;;;16.05
15333;BMP180;7766;51.534;6.722;2023-07-28T04:54:04;97837.94;;;16.04
15333;BMP180;7766;51.534;6.722;2023-07-28T04:55:05;97829.19;;;16.08
15333;BMP180;7766;51.534;6.722;2023-07-28T04:56:06;97824.31;;;16.15
15333;BMP180;7766;51.534;6.722;2023-07-28T04:57:08;97819.81;;;16.15
15333;BMP180;7766;51.534;6.722;2023-07-28T04:58:09;97820.53;;;16.20
15333;BMP180;7766;51.534;6.722;2023-07-28T04:59:10;97824.75;;;16.21
15333;BMP180;7766;51.534;6.722;2023-07-28T05:00:12;97828.91;;;16.27
15333;BMP180;7766;51.534;6.722;2023-07-28T05:01:13;97826.25;;;16.27
15333;BMP180;7766;51.534;6.722;2023-07-28T05:02:14;97826.03;;;16.24
15333;BMP180;7766;51.534;6.722;2023-07-28T05:03:15;97831.28;;;16.29
15333;BMP180;7766;51.534;6.722;2023-07-28T05:04:16;97825.25;;;16.23
15333;BMP180;7766;51.534;6.722;2023-07-28T05:05:17;97825.75;;;16.25
15333;BMP180;7766;51.534;6.722;2023-07-28T05:06:18;97824.09;;;16.29
15333;BMP180;7766;51.534;6.722;2023-07-28T05:07:19;97825.19;;;16.28
15333;BMP180;7766;51.534;6.722;2023-07-28T05:08:21;97824.09;;;16.29
15333;BMP180;7766;51.534;6.722;2023-07-28T05:09:22;97822.53;;;16.28
15333;BMP180;7766;51.534;6.722;2023-07-28T05:10:23;97828.81;;;16.32
15333;BMP180;7766;51.534;6.722;2023-07-28T05:11:24;97828.34;;;16.30
15333;BMP180;7766;51.534;6.722;2023-07-28T05:12:25;97829.47;;;16.24
15333;BMP180;7766;51.534;6.722;2023-07-28T05:13:26;97835.69;;;16.15
15333;BMP180;7766;51.534;6.722;2023-07-28T05:14:27;97832.13;;;16.24
15333;BMP180;7766;51.534;6.722;2023-07-28T05:15:28;97828.69;;;16.24
15333;BMP180;7766;51.534;6.722;2023-07-28T05:16:29;97829.47;;;16.24
15333;BMP180;7766;51.534;6.722;2023-07-28T05:17:30;97837.88;;;16.31
15333;BMP180;7766;51.534;6.722;2023-07-28T05:18:31;97829.41;;;16.29
15333;BMP180;7766;51.534;6.722;2023-07-28T05:19:32;97833.13;;;16.28
15333;BMP180;7766;51.534;6.722;2023-07-28T05:20:33;97828.06;;;16.32
15333;BMP180;7766;51.534;6.722;2023-07-28T05:21:34;97830.66;;;16.36
15333;BMP180;7766;51.534;6.722;2023-07-28T05:22:35;97834.34;;;16.36
15333;BMP180;7766;51.534;6.722;2023-07-28T05:23:36;97827.69;;;16.38
15333;BMP180;7766;51.534;6.722;2023-07-28T05:24:37;97827.44;;;16.39
15333;BMP180;7766;51.534;6.722;2023-07-28T05:25:38;97832.91;;;16.43
15333;BMP180;7766;51.534;6.722;2023-07-28T05:26:39;97831.84;;;16.44
15333;BMP180;7766;51.534;6.722;2023-07-28T05:27:40;97835.81;;;16.46
15333;BMP180;7766;51.534;6.722;2023-07-28T05:28:41;97842.38;;;16.49
15333;BMP180;7766;51.534;6.722;2023-07-28T05:29:42;97842.63;;;16.52
15333;BMP180;7766;51.534;6.722;2023-07-28T05:30:43;97843.66;;;16.51
15333;BMP180;7766;51.534;6.722;2023-07-28T05:31:44;97843.41;;;16.52
15333;BMP180;7766;51.534;6.722;2023-07-28T05:32:46;97846.09;;;16.48
15333;BMP180;7766;51.534;6.722;2023-07-28T05:33:47;97846.88;;;16.48
15333;BMP180;7766;51.534;6.722;2023-07-28T05:34:48;97840.22;;;16.51
15333;BMP180;7766;51.534;6.722;2023-07-28T05:36:02;97844.16;;;16.53
15333;BMP180;7766;51.534;6.722;2023-07-28T05:37:04;97843.91;;;16.54
15333;BMP180;7766;51.534;6.722;2023-07-28T05:38:05;97844.38;;;16.56
15333;BMP180;7766;51.534;6.722;2023-07-28T05:39:06;97847.63;;;16.53
15333;BMP180;7766;51.534;6.722;2023-07-28T05:40:08;97852.00;;;16.45
15333;BMP180;7766;51.534;6.722;2023-07-28T05:41:09;97848.88;;;16.38
15333;BMP180;7766;51.534;6.722;2023-07-28T05:42:10;97847.75;;;16.44
15333;BMP180;7766;51.534;6.722;2023-07-28T05:43:11;97853.69;;;16.36
15333;BMP180;7766;51.534;6.722;2023-07-28T05:44:12;97852.56;;;16.42
15333;BMP180;7766;51.534;6.722;2023-07-28T05:45:13;97859.34;;;16.48
15333;BMP180;7766;51.534;6.722;2023-07-28T05:46:14;97855.06;;;16.52
15333;BMP180;7766;51.534;6.722;2023-07-28T05:47:15;97851.56;;;16.56
15333;BMP180;7766;51.534;6.722;2023-07-28T05:48:16;97856.84;;;16.56
15333;BMP180;7766;51.534;6.722;2023-07-28T05:49:17;97862.38;;;16.59
15333;BMP180;7766;51.534;6.722;2023-07-28T05:50:18;97856.00;;;16.60
15333;BMP180;7766;51.534;6.722;2023-07-28T05:51:19;97856.50;;;16.62
15333;BMP180;7766;51.534;6.722;2023-07-28T05:52:20;97859.16;;;16.62
15333;BMP180;7766;51.534;6.722;2023-07-28T05:53:23;97860.75;;;16.63
15333;BMP180;7766;51.534;6.722;2023-07-28T05:54:24;97864.09;;;16.51
15333;BMP180;7766;51.534;6.722;2023-07-28T05:55:25;97866.44;;;16.34
15333;BMP180;7766;51.534;6.722;2023-07-28T05:56:26;97874.41;;;16.34
15333;BMP180;7766;51.534;6.722;2023-07-28T05:57:27;97874.25;;;16.44
15333;BMP180;7766;51.534;6.722;2023-07-28T05:58:28;97871.53;;;16.49
15333;BMP180;7766;51.534;6.722;2023-07-28T05:59:29;97887.16;;;16.50
15333;BMP180;7766;51.534;6.722;2023-07-28T06:00:30;97882.44;;;16.47
15333;BMP180;7766;51.534;6.722;2023-07-28T06:01:31;97878.03;;;16.38
15333;BMP180;7766;51.534;6.722;2023-07-28T06:02:32;97874.97;;;16.31